European Causeway — C6RG7 — position and weather

sailwx.info

Track history (hours):
 
Tides and Currents Weather Stations Pressure Air Temp Water Temp Dewpoint Dewpoint Depression Visibility Wind Speed Wind Dir Waves Ship Positions

European Causeway

Operator: P & O Irish Sea

Last reported at 2015-Apr-01 13:16 UTC. Time now 2015-Apr-01 14:28 UTC.
Position N 54°51' W 005°48'.

Length 165 m; draft 5.5 m.

Type: Ship (hazmat cat A). MMSI: 311027000.

Date/timePositionNaut miles runAvg speedWind from/ knotsBaromVisibWave heightAir tempDewpointWater temp
2015-Apr-01 13:16N 54°51' W 005°48'0 0.0
2015-Apr-01 12:33N 54°51' W 005°48'0 0.0
2015-Apr-01 11:33N 54°51' W 005°48'0 0.0
2015-Apr-01 10:22N 54°51' W 005°48'0 0.0
2015-Apr-01 09:13N 54°51' W 005°48'0 0.0
2015-Apr-01 08:31N 54°51' W 005°48'0 0.0
2015-Apr-01 07:28N 54°51' W 005°48'0 0.0
2015-Apr-01 06:25N 54°51' W 005°48'0 0.0
2015-Apr-01 05:34N 54°51' W 005°48'0 0.0
2015-Apr-01 04:27N 54°51' W 005°48'0 0.0
2015-Apr-01 03:33N 54°51' W 005°48'0 0.0
2015-Apr-01 02:33N 54°51' W 005°48'0 0.0
2015-Apr-01 01:26N 54°51' W 005°48'0 0.0
2015-Apr-01 00:29N 54°51' W 005°48'0 0.0
2015-Mar-31 23:32N 54°51' W 005°48'0 0.0
2015-Mar-31 22:32N 54°51' W 005°48'0 0.0
2015-Mar-31 21:32N 54°51' W 005°48'0 0.0
2015-Mar-31 20:32N 54°51' W 005°48'0 0.0
2015-Mar-31 19:33N 54°51' W 005°48'0 0.0
2015-Mar-31 18:31N 54°51' W 005°48'0 0.0
2015-Mar-31 17:19N 54°51' W 005°48'0 0.0
2015-Mar-31 16:25N 54°51' W 005°48'0 0.0
2015-Mar-31 15:33N 54°51' W 005°48'0 0.0
2015-Mar-31 14:33N 54°51' W 005°48'0 0.0
2015-Mar-31 13:33N 54°51' W 005°48'0 0.0
2015-Mar-31 12:34N 54°51' W 005°48'0 0.0
2015-Mar-31 11:33N 54°51' W 005°48'0 0.0
2015-Mar-31 10:33N 54°51' W 005°48'0 0.0
2015-Mar-31 09:33N 54°51' W 005°48'0 0.0
2015-Mar-31 08:33N 54°51' W 005°48'0 0.0
2015-Mar-31 07:33N 54°51' W 005°48'0 0.0
2015-Mar-31 06:33N 54°51' W 005°48'0 0.0
2015-Mar-31 05:33N 54°51' W 005°48'7 7.3
2015-Mar-31 04:33N 54°55' W 005°37'1818.1
2015-Mar-31 03:33N 55°02' W 005°08'6 5.8
2015-Mar-31 02:33N 54°58' W 005°01'0 0.0
2015-Mar-31 01:34N 54°58' W 005°01'6 5.0
2015-Mar-31 00:27N 55°02' W 005°08'1819.7
2015-Mar-30 23:32N 54°54' W 005°37'7 7.4
2015-Mar-30 22:33N 54°51' W 005°48'0 0.0
2015-Mar-30 21:33N 54°51' W 005°48'6 6.4
2015-Mar-30 20:34N 54°54' W 005°38'1716.5
2015-Mar-30 19:33N 55°01' W 005°12'7 7.1
2015-Mar-30 18:30N 54°58' W 005°01'0 0.1
2015-Mar-30 17:33N 54°58' W 005°01'1212.1
2015-Mar-30 16:33N 54°57' W 005°22'1615.0
2015-Mar-30 15:29N 54°51' W 005°48'0 0.0
2015-Mar-30 14:33N 54°51' W 005°48'1313.0
2015-Mar-30 13:33N 54°57' W 005°28'1514.7
2015-Mar-30 12:33N 54°59' W 005°03'2 1.9
2015-Mar-30 11:33N 54°58' W 005°01'1010.3
2015-Mar-30 10:34N 54°59' W 005°19'1817.8
2015-Mar-30 09:33N 54°52' W 005°47'1 1.0
2015-Mar-30 08:33N 54°51' W 005°48'1211.8
2015-Mar-30 07:33N 54°57' W 005°30'1615.1
2015-Mar-30 06:29N 54°59' W 005°03'2 1.4
2015-Mar-30 05:14N 54°58' W 005°01'4 5.4
2015-Mar-30 04:33N 55°01' W 005°04'1716.6
2015-Mar-30 03:33N 54°55' W 005°31'1010.2
2015-Mar-30 02:33N 54°51' W 005°48'0 0.0
2015-Mar-30 01:33N 54°51' W 005°48'0 0.0
2015-Mar-30 00:33N 54°51' W 005°48'4 3.8
2015-Mar-29 23:33N 54°53' W 005°42'1717.2
2015-Mar-29 22:34N 55°00' W 005°16'9 8.9
2015-Mar-29 21:33N 54°58' W 005°01'5 5.1
2015-Mar-29 20:32N 55°01' W 005°07'1717.9
2015-Mar-29 19:33N 54°54' W 005°35'8 8.3
2015-Mar-29 18:33N 54°51' W 005°48'0 0.0
2015-Mar-29 17:33N 54°51' W 005°48'1413.7
2015-Mar-29 16:32N 54°58' W 005°26'1414.0
2015-Mar-29 15:33N 54°59' W 005°03'1 1.5
2015-Mar-29 14:33N 54°58' W 005°01'6 6.0
2015-Mar-29 13:33N 55°01' W 005°09'1817.5
2015-Mar-29 12:33N 54°54' W 005°37'7 7.1
2015-Mar-29 11:34N 54°51' W 005°48'0 0.0
2015-Mar-29 10:33N 54°51' W 005°48'0 0.0
2015-Mar-29 09:33N 54°51' W 005°48'0 0.0
2015-Mar-29 08:33N 54°51' W 005°48'1312.6
2015-Mar-29 07:32N 54°57' W 005°28'1514.7
2015-Mar-29 06:31N 54°59' W 005°02'1 1.4
2015-Mar-29 05:32N 54°58' W 005°01'0 0.0
2015-Mar-29 04:14N 54°58' W 005°01'0 0.0
2015-Mar-29 03:29N 54°58' W 005°01'0 0.0
2015-Mar-29 02:29N 54°58' W 005°01'0 0.0
2015-Mar-29 01:23N 54°58' W 005°01'0 0.0
2015-Mar-29 00:26N 54°58' W 005°01'0 0.0
2015-Mar-28 23:14N 54°58' W 005°01'0 0.0
2015-Mar-28 22:23N 54°58' W 005°01'6 6.0
2015-Mar-28 21:28N 55°01' W 005°08'1617.9
2015-Mar-28 20:33N 54°55' W 005°34'9 8.8
2015-Mar-28 19:33N 54°51' W 005°48'0 0.0
2015-Mar-28 18:33N 54°51' W 005°48'1312.6
2015-Mar-28 17:34N 54°57' W 005°29'1515.0
2015-Mar-28 16:33N 54°59' W 005°03'1 1.5
2015-Mar-28 15:33N 54°58' W 005°01'1111.5
2015-Mar-28 14:33N 54°58' W 005°21'1717.1
2015-Mar-28 13:33N 54°51' W 005°48'0 0.0
2015-Mar-28 12:33N 54°51' W 005°48'1414.1
2015-Mar-28 11:33N 54°57' W 005°26'1413.9
2015-Mar-28 10:33N 54°59' W 005°02'1 1.2
2015-Mar-28 09:34N 54°58' W 005°01'10 9.4
2015-Mar-28 08:31N 54°59' W 005°18'1818.3
2015-Mar-28 07:33N 54°52' W 005°46'2 1.7
2015-Mar-28 06:33N 54°51' W 005°48'3 3.0
2015-Mar-28 05:33N 54°53' W 005°44'2019.0
2015-Mar-28 04:30N 55°01' W 005°12'7 7.8
2015-Mar-28 03:33N 54°58' W 005°01'0 0.0
2015-Mar-28 02:30N 54°58' W 005°01'2 2.4
2015-Mar-28 01:33N 54°60' W 005°03'1817.8
2015-Mar-28 00:33N 54°55' W 005°33'9 9.3
2015-Mar-27 23:34N 54°51' W 005°48'0 0.0
2015-Mar-27 22:32N 54°51' W 005°48'4 4.5
2015-Mar-27 21:33N 54°53' W 005°42'1818.1
2015-Mar-27 20:32N 55°01' W 005°13'8 7.2
2015-Mar-27 19:28N 54°58' W 005°01'0 0.0
2015-Mar-27 18:33N 54°58' W 005°01'1110.9
2015-Mar-27 17:33N 54°58' W 005°20'1717.5
2015-Mar-27 16:33N 54°51' W 005°48'0 0.1
2015-Mar-27 15:33N 54°51' W 005°48'1414.6
2015-Mar-27 14:33N 54°58' W 005°26'1413.7
2015-Mar-27 13:32N 54°58' W 005°01'0 0.2
2015-Mar-27 12:29N 54°58' W 005°01'9 9.9
2015-Mar-27 11:33N 54°59' W 005°17'1918.2
2015-Mar-27 10:30N 54°51' W 005°48'1 0.6
2015-Mar-27 09:33N 54°51' W 005°48'1212.6
2015-Mar-27 08:33N 54°57' W 005°30'1515.0
2015-Mar-27 07:32N 54°59' W 005°03'2 1.8
2015-Mar-27 06:34N 54°58' W 005°01'5 4.7
2015-Mar-27 05:30N 55°02' W 005°06'1818.6
2015-Mar-27 04:33N 54°53' W 005°34'9 8.6
2015-Mar-27 03:33N 54°51' W 005°48'0 0.0
2015-Mar-27 02:33N 54°51' W 005°48'4 3.7
2015-Mar-27 01:30N 54°53' W 005°42'1717.8
2015-Mar-27 00:34N 55°00' W 005°16'9 7.7
2015-Mar-26 23:23N 54°58' W 005°01'0 0.0
2015-Mar-26 22:14N 54°58' W 005°01'5 7.2
2015-Mar-26 21:32N 55°02' W 005°07'1817.8
2015-Mar-26 20:32N 54°54' W 005°35'8 7.4
2015-Mar-26 19:25N 54°51' W 005°48'1 1.6
2015-Mar-26 18:29N 54°52' W 005°47'1919.9
2015-Mar-26 17:32N 55°00' W 005°17'9 7.2
2015-Mar-26 16:13N 54°58' W 005°01'0 0.2
2015-Mar-26 15:29N 54°58' W 005°01'1213.5
2015-Mar-26 14:33N 54°57' W 005°23'1615.0
2015-Mar-26 13:30N 54°51' W 005°48'0 0.0
2015-Mar-26 12:33N 54°51' W 005°48'1514.8
2015-Mar-26 11:33N 54°58' W 005°25'1313.4
2015-Mar-26 10:33N 54°58' W 005°02'1 0.9
2015-Mar-26 09:33N 54°58' W 005°01'9 8.9
2015-Mar-26 08:33N 54°59' W 005°16'2018.8
2015-Mar-26 07:30N 54°51' W 005°48'0 0.4
2015-Mar-26 06:33N 54°51' W 005°48'8 7.6
2015-Mar-26 05:33N 54°55' W 005°37'1918.8
2015-Mar-26 04:31N 55°01' W 005°04'4 3.5
2015-Mar-26 03:30N 54°58' W 005°01'0 0.0
2015-Mar-26 02:33N 54°58' W 005°01'5 4.5
2015-Mar-26 01:22N 55°02' W 005°07'1821.8
2015-Mar-26 00:33N 54°54' W 005°35'8 8.0
2015-Mar-25 23:33N 54°51' W 005°48'0 0.0
2015-Mar-25 22:33N 54°51' W 005°48'9 8.5
2015-Mar-25 21:32N 54°55' W 005°35'1918.0
2015-Mar-25 20:30N 54°59' W 005°03'2 1.7
2015-Mar-25 19:31N 54°58' W 005°01'0 0.1
2015-Mar-25 18:31N 54°58' W 005°01'1212.0
2015-Mar-25 17:33N 54°58' W 005°21'1714.5
2015-Mar-25 16:23N 54°51' W 005°48'0 0.0
2015-Mar-25 15:33N 54°51' W 005°48'1212.3
2015-Mar-25 14:33N 54°57' W 005°29'1515.3
2015-Mar-25 13:33N 54°59' W 005°03'1 1.4
2015-Mar-25 12:33N 54°58' W 005°01'9 9.0
2015-Mar-25 11:33N 54°59' W 005°16'1918.8
2015-Mar-25 10:33N 54°52' W 005°47'1 1.4
2015-Mar-25 09:33N 54°51' W 005°48'1716.6
2015-Mar-25 08:33N 54°59' W 005°22'1212.3
2015-Mar-25 07:33N 54°58' W 005°01'0 0.0
2015-Mar-25 06:32N 54°58' W 005°01'5 5.1
2015-Mar-25 05:33N 55°01' W 005°07'2019.9
2015-Mar-25 04:33N 54°53' W 005°38'6 6.1
2015-Mar-25 03:33N 54°51' W 005°48'0 0.0
2015-Mar-25 02:33N 54°51' W 005°48'4 3.8
2015-Mar-25 01:33N 54°53' W 005°42'1817.7
2015-Mar-25 00:33N 55°01' W 005°15'9 8.3
2015-Mar-24 23:31N 54°58' W 005°01'0 0.0
2015-Mar-24 22:31N 54°58' W 005°01'6 5.7
2015-Mar-24 21:33N 55°01' W 005°08'1918.2
2015-Mar-24 20:32N 54°54' W 005°37'7 6.8
2015-Mar-24 19:33N 54°51' W 005°48'0 0.0
2015-Mar-24 18:32N 54°51' W 005°48'1414.4
2015-Mar-24 17:34N 54°58' W 005°26'1513.9
2015-Mar-24 16:30N 54°58' W 005°01'0 0.0
2015-Mar-24 15:33N 54°58' W 005°01'1010.1
2015-Mar-24 14:33N 54°59' W 005°18'1918.6
2015-Mar-24 13:33N 54°51' W 005°48'0 0.1
2015-Mar-24 12:33N 54°51' W 005°48'1312.8
2015-Mar-24 11:33N 54°57' W 005°29'1514.8
2015-Mar-24 10:33N 54°59' W 005°03'2 1.7
2015-Mar-24 09:33N 54°58' W 005°01'9 8.9
2015-Mar-24 08:33N 54°59' W 005°16'1818.4
2015-Mar-24 07:33N 54°52' W 005°46'2 1.8
2015-Mar-24 06:33N 54°51' W 005°48'6 5.6
2015-Mar-24 05:33N 54°54' W 005°40'1817.6
2015-Mar-24 04:30N 55°02' W 005°11'7 6.8
2015-Mar-24 03:31N 54°58' W 005°01'0 0.0
2015-Mar-24 02:33N 54°58' W 005°01'5 4.7
2015-Mar-24 01:31N 55°02' W 005°06'1818.3
2015-Mar-24 00:33N 54°54' W 005°34'9 8.6
2015-Mar-23 23:33N 54°51' W 005°48'0 0.0
2015-Mar-23 22:33N 54°51' W 005°48'3 3.4
2015-Mar-23 21:33N 54°53' W 005°43'1818.0
2015-Mar-23 20:33N 55°00' W 005°15'8 8.2
2015-Mar-23 19:31N 54°58' W 005°01'0 0.2
2015-Mar-23 18:33N 54°58' W 005°01'1212.2
2015-Mar-23 17:33N 54°58' W 005°23'1616.0
2015-Mar-23 16:33N 54°51' W 005°48'0 0.1
2015-Mar-23 15:34N 54°51' W 005°48'1312.5
2015-Mar-23 14:32N 54°57' W 005°28'1515.2
2015-Mar-23 13:33N 54°59' W 005°03'2 2.0
2015-Mar-23 12:34N 54°58' W 005°01'1010.4
2015-Mar-23 11:33N 54°58' W 005°19'1817.4
2015-Mar-23 10:31N 54°51' W 005°48'0 0.1
2015-Mar-23 09:32N 54°51' W 005°48'1212.0
2015-Mar-23 08:33N 54°57' W 005°30'1515.0
2015-Mar-23 07:31N 54°59' W 005°03'2 2.0
2015-Mar-23 06:33N 54°58' W 005°01'5 5.2
2015-Mar-23 05:31N 55°01' W 005°08'1818.1
2015-Mar-23 04:33N 54°54' W 005°36'8 7.9
2015-Mar-23 03:33N 54°51' W 005°48'0 0.0
2015-Mar-23 02:33N 54°51' W 005°48'0 0.0
2015-Mar-23 01:34N 54°51' W 005°48'3 3.4
2015-Mar-23 00:32N 54°53' W 005°43'1817.7
2015-Mar-22 23:33N 55°01' W 005°15'9 8.8
2015-Mar-22 22:33N 54°58' W 005°01'6 5.6
2015-Mar-22 21:31N 55°02' W 005°09'1717.4
2015-Mar-22 20:33N 54°54' W 005°35'8 8.1
2015-Mar-22 19:33N 54°51' W 005°48'0 0.0
2015-Mar-22 18:33N 54°51' W 005°48'1313.1
2015-Mar-22 17:33N 54°57' W 005°28'1515.0
2015-Mar-22 16:33N 54°58' W 005°02'1 0.9
2015-Mar-22 15:33N 54°58' W 005°01'6 5.5
2015-Mar-22 14:33N 55°02' W 005°08'1917.9
2015-Mar-22 13:30N 54°54' W 005°38'  
Track history (hours):
 
Tides and Currents Weather Stations Pressure Air Temp Water Temp Dewpoint Dewpoint Depression Visibility Wind Speed Wind Dir Waves Ship Positions

European Causeway

Operator: P & O Irish Sea

Last reported at 2015-Apr-01 13:16 UTC. Time now 2015-Apr-01 14:28 UTC.
Position N 54°51' W 005°48'.

Length 165 m; draft 5.5 m.

Type: Ship (hazmat cat A). MMSI: 311027000.

Date/timePositionNaut miles runAvg speedWind from/ knotsBaromVisibWave heightAir tempDewpointWater temp
2015-Apr-01 13:16N 54°51' W 005°48'0 0.0
2015-Apr-01 12:33N 54°51' W 005°48'0 0.0
2015-Apr-01 11:33N 54°51' W 005°48'0 0.0
2015-Apr-01 10:22N 54°51' W 005°48'0 0.0
2015-Apr-01 09:13N 54°51' W 005°48'0 0.0
2015-Apr-01 08:31N 54°51' W 005°48'0 0.0
2015-Apr-01 07:28N 54°51' W 005°48'0 0.0
2015-Apr-01 06:25N 54°51' W 005°48'0 0.0
2015-Apr-01 05:34N 54°51' W 005°48'0 0.0
2015-Apr-01 04:27N 54°51' W 005°48'0 0.0
2015-Apr-01 03:33N 54°51' W 005°48'0 0.0
2015-Apr-01 02:33N 54°51' W 005°48'0 0.0
2015-Apr-01 01:26N 54°51' W 005°48'0 0.0
2015-Apr-01 00:29N 54°51' W 005°48'0 0.0
2015-Mar-31 23:32N 54°51' W 005°48'0 0.0
2015-Mar-31 22:32N 54°51' W 005°48'0 0.0
2015-Mar-31 21:32N 54°51' W 005°48'0 0.0
2015-Mar-31 20:32N 54°51' W 005°48'0 0.0
2015-Mar-31 19:33N 54°51' W 005°48'0 0.0
2015-Mar-31 18:31N 54°51' W 005°48'0 0.0
2015-Mar-31 17:19N 54°51' W 005°48'0 0.0
2015-Mar-31 16:25N 54°51' W 005°48'0 0.0
2015-Mar-31 15:33N 54°51' W 005°48'0 0.0
2015-Mar-31 14:33N 54°51' W 005°48'0 0.0
2015-Mar-31 13:33N 54°51' W 005°48'0 0.0
2015-Mar-31 12:34N 54°51' W 005°48'0 0.0
2015-Mar-31 11:33N 54°51' W 005°48'0 0.0
2015-Mar-31 10:33N 54°51' W 005°48'0 0.0
2015-Mar-31 09:33N 54°51' W 005°48'0 0.0
2015-Mar-31 08:33N 54°51' W 005°48'0 0.0
2015-Mar-31 07:33N 54°51' W 005°48'0 0.0
2015-Mar-31 06:33N 54°51' W 005°48'0 0.0
2015-Mar-31 05:33N 54°51' W 005°48'7 7.3
2015-Mar-31 04:33N 54°55' W 005°37'1818.1
2015-Mar-31 03:33N 55°02' W 005°08'6 5.8
2015-Mar-31 02:33N 54°58' W 005°01'0 0.0
2015-Mar-31 01:34N 54°58' W 005°01'6 5.0
2015-Mar-31 00:27N 55°02' W 005°08'1819.7
2015-Mar-30 23:32N 54°54' W 005°37'7 7.4
2015-Mar-30 22:33N 54°51' W 005°48'0 0.0
2015-Mar-30 21:33N 54°51' W 005°48'6 6.4
2015-Mar-30 20:34N 54°54' W 005°38'1716.5
2015-Mar-30 19:33N 55°01' W 005°12'7 7.1
2015-Mar-30 18:30N 54°58' W 005°01'0 0.1
2015-Mar-30 17:33N 54°58' W 005°01'1212.1
2015-Mar-30 16:33N 54°57' W 005°22'1615.0
2015-Mar-30 15:29N 54°51' W 005°48'0 0.0
2015-Mar-30 14:33N 54°51' W 005°48'1313.0
2015-Mar-30 13:33N 54°57' W 005°28'1514.7
2015-Mar-30 12:33N 54°59' W 005°03'2 1.9
2015-Mar-30 11:33N 54°58' W 005°01'1010.3
2015-Mar-30 10:34N 54°59' W 005°19'1817.8
2015-Mar-30 09:33N 54°52' W 005°47'1 1.0
2015-Mar-30 08:33N 54°51' W 005°48'1211.8
2015-Mar-30 07:33N 54°57' W 005°30'1615.1
2015-Mar-30 06:29N 54°59' W 005°03'2 1.4
2015-Mar-30 05:14N 54°58' W 005°01'4 5.4
2015-Mar-30 04:33N 55°01' W 005°04'1716.6
2015-Mar-30 03:33N 54°55' W 005°31'1010.2
2015-Mar-30 02:33N 54°51' W 005°48'0 0.0
2015-Mar-30 01:33N 54°51' W 005°48'0 0.0
2015-Mar-30 00:33N 54°51' W 005°48'4 3.8
2015-Mar-29 23:33N 54°53' W 005°42'1717.2
2015-Mar-29 22:34N 55°00' W 005°16'9 8.9
2015-Mar-29 21:33N 54°58' W 005°01'5 5.1
2015-Mar-29 20:32N 55°01' W 005°07'1717.9
2015-Mar-29 19:33N 54°54' W 005°35'8 8.3
2015-Mar-29 18:33N 54°51' W 005°48'0 0.0
2015-Mar-29 17:33N 54°51' W 005°48'1413.7
2015-Mar-29 16:32N 54°58' W 005°26'1414.0
2015-Mar-29 15:33N 54°59' W 005°03'1 1.5
2015-Mar-29 14:33N 54°58' W 005°01'6 6.0
2015-Mar-29 13:33N 55°01' W 005°09'1817.5
2015-Mar-29 12:33N 54°54' W 005°37'7 7.1
2015-Mar-29 11:34N 54°51' W 005°48'0 0.0
2015-Mar-29 10:33N 54°51' W 005°48'0 0.0
2015-Mar-29 09:33N 54°51' W 005°48'0 0.0
2015-Mar-29 08:33N 54°51' W 005°48'1312.6
2015-Mar-29 07:32N 54°57' W 005°28'1514.7
2015-Mar-29 06:31N 54°59' W 005°02'1 1.4
2015-Mar-29 05:32N 54°58' W 005°01'0 0.0
2015-Mar-29 04:14N 54°58' W 005°01'0 0.0
2015-Mar-29 03:29N 54°58' W 005°01'0 0.0
2015-Mar-29 02:29N 54°58' W 005°01'0 0.0
2015-Mar-29 01:23N 54°58' W 005°01'0 0.0
2015-Mar-29 00:26N 54°58' W 005°01'0 0.0
2015-Mar-28 23:14N 54°58' W 005°01'0 0.0
2015-Mar-28 22:23N 54°58' W 005°01'6 6.0
2015-Mar-28 21:28N 55°01' W 005°08'1617.9
2015-Mar-28 20:33N 54°55' W 005°34'9 8.8
2015-Mar-28 19:33N 54°51' W 005°48'0 0.0
2015-Mar-28 18:33N 54°51' W 005°48'1312.6
2015-Mar-28 17:34N 54°57' W 005°29'1515.0
2015-Mar-28 16:33N 54°59' W 005°03'1 1.5
2015-Mar-28 15:33N 54°58' W 005°01'1111.5
2015-Mar-28 14:33N 54°58' W 005°21'1717.1
2015-Mar-28 13:33N 54°51' W 005°48'0 0.0
2015-Mar-28 12:33N 54°51' W 005°48'1414.1
2015-Mar-28 11:33N 54°57' W 005°26'1413.9
2015-Mar-28 10:33N 54°59' W 005°02'1 1.2
2015-Mar-28 09:34N 54°58' W 005°01'10 9.4
2015-Mar-28 08:31N 54°59' W 005°18'1818.3
2015-Mar-28 07:33N 54°52' W 005°46'2 1.7
2015-Mar-28 06:33N 54°51' W 005°48'3 3.0
2015-Mar-28 05:33N 54°53' W 005°44'2019.0
2015-Mar-28 04:30N 55°01' W 005°12'7 7.8
2015-Mar-28 03:33N 54°58' W 005°01'0 0.0
2015-Mar-28 02:30N 54°58' W 005°01'2 2.4
2015-Mar-28 01:33N 54°60' W 005°03'1817.8
2015-Mar-28 00:33N 54°55' W 005°33'9 9.3
2015-Mar-27 23:34N 54°51' W 005°48'0 0.0
2015-Mar-27 22:32N 54°51' W 005°48'4 4.5
2015-Mar-27 21:33N 54°53' W 005°42'1818.1
2015-Mar-27 20:32N 55°01' W 005°13'8 7.2
2015-Mar-27 19:28N 54°58' W 005°01'0 0.0
2015-Mar-27 18:33N 54°58' W 005°01'1110.9
2015-Mar-27 17:33N 54°58' W 005°20'1717.5
2015-Mar-27 16:33N 54°51' W 005°48'0 0.1
2015-Mar-27 15:33N 54°51' W 005°48'1414.6
2015-Mar-27 14:33N 54°58' W 005°26'1413.7
2015-Mar-27 13:32N 54°58' W 005°01'0 0.2
2015-Mar-27 12:29N 54°58' W 005°01'9 9.9
2015-Mar-27 11:33N 54°59' W 005°17'1918.2
2015-Mar-27 10:30N 54°51' W 005°48'1 0.6
2015-Mar-27 09:33N 54°51' W 005°48'1212.6
2015-Mar-27 08:33N 54°57' W 005°30'1515.0
2015-Mar-27 07:32N 54°59' W 005°03'2 1.8
2015-Mar-27 06:34N 54°58' W 005°01'5 4.7
2015-Mar-27 05:30N 55°02' W 005°06'1818.6
2015-Mar-27 04:33N 54°53' W 005°34'9 8.6
2015-Mar-27 03:33N 54°51' W 005°48'0 0.0
2015-Mar-27 02:33N 54°51' W 005°48'4 3.7
2015-Mar-27 01:30N 54°53' W 005°42'1717.8
2015-Mar-27 00:34N 55°00' W 005°16'9 7.7
2015-Mar-26 23:23N 54°58' W 005°01'0 0.0
2015-Mar-26 22:14N 54°58' W 005°01'5 7.2
2015-Mar-26 21:32N 55°02' W 005°07'1817.8
2015-Mar-26 20:32N 54°54' W 005°35'8 7.4
2015-Mar-26 19:25N 54°51' W 005°48'1 1.6
2015-Mar-26 18:29N 54°52' W 005°47'1919.9
2015-Mar-26 17:32N 55°00' W 005°17'9 7.2
2015-Mar-26 16:13N 54°58' W 005°01'0 0.2
2015-Mar-26 15:29N 54°58' W 005°01'1213.5
2015-Mar-26 14:33N 54°57' W 005°23'1615.0
2015-Mar-26 13:30N 54°51' W 005°48'0 0.0
2015-Mar-26 12:33N 54°51' W 005°48'1514.8
2015-Mar-26 11:33N 54°58' W 005°25'1313.4
2015-Mar-26 10:33N 54°58' W 005°02'1 0.9
2015-Mar-26 09:33N 54°58' W 005°01'9 8.9
2015-Mar-26 08:33N 54°59' W 005°16'2018.8
2015-Mar-26 07:30N 54°51' W 005°48'0 0.4
2015-Mar-26 06:33N 54°51' W 005°48'8 7.6
2015-Mar-26 05:33N 54°55' W 005°37'1918.8
2015-Mar-26 04:31N 55°01' W 005°04'4 3.5
2015-Mar-26 03:30N 54°58' W 005°01'0 0.0
2015-Mar-26 02:33N 54°58' W 005°01'5 4.5
2015-Mar-26 01:22N 55°02' W 005°07'1821.8
2015-Mar-26 00:33N 54°54' W 005°35'8 8.0
2015-Mar-25 23:33N 54°51' W 005°48'0 0.0
2015-Mar-25 22:33N 54°51' W 005°48'9 8.5
2015-Mar-25 21:32N 54°55' W 005°35'1918.0
2015-Mar-25 20:30N 54°59' W 005°03'2 1.7
2015-Mar-25 19:31N 54°58' W 005°01'0 0.1
2015-Mar-25 18:31N 54°58' W 005°01'1212.0
2015-Mar-25 17:33N 54°58' W 005°21'1714.5
2015-Mar-25 16:23N 54°51' W 005°48'0 0.0
2015-Mar-25 15:33N 54°51' W 005°48'1212.3
2015-Mar-25 14:33N 54°57' W 005°29'1515.3
2015-Mar-25 13:33N 54°59' W 005°03'1 1.4
2015-Mar-25 12:33N 54°58' W 005°01'9 9.0
2015-Mar-25 11:33N 54°59' W 005°16'1918.8
2015-Mar-25 10:33N 54°52' W 005°47'1 1.4
2015-Mar-25 09:33N 54°51' W 005°48'1716.6
2015-Mar-25 08:33N 54°59' W 005°22'1212.3
2015-Mar-25 07:33N 54°58' W 005°01'0 0.0
2015-Mar-25 06:32N 54°58' W 005°01'5 5.1
2015-Mar-25 05:33N 55°01' W 005°07'2019.9
2015-Mar-25 04:33N 54°53' W 005°38'6 6.1
2015-Mar-25 03:33N 54°51' W 005°48'0 0.0
2015-Mar-25 02:33N 54°51' W 005°48'4 3.8
2015-Mar-25 01:33N 54°53' W 005°42'1817.7
2015-Mar-25 00:33N 55°01' W 005°15'9 8.3
2015-Mar-24 23:31N 54°58' W 005°01'0 0.0
2015-Mar-24 22:31N 54°58' W 005°01'6 5.7
2015-Mar-24 21:33N 55°01' W 005°08'1918.2
2015-Mar-24 20:32N 54°54' W 005°37'7 6.8
2015-Mar-24 19:33N 54°51' W 005°48'0 0.0
2015-Mar-24 18:32N 54°51' W 005°48'1414.4
2015-Mar-24 17:34N 54°58' W 005°26'1513.9
2015-Mar-24 16:30N 54°58' W 005°01'0 0.0
2015-Mar-24 15:33N 54°58' W 005°01'1010.1
2015-Mar-24 14:33N 54°59' W 005°18'1918.6
2015-Mar-24 13:33N 54°51' W 005°48'0 0.1
2015-Mar-24 12:33N 54°51' W 005°48'1312.8
2015-Mar-24 11:33N 54°57' W 005°29'1514.8
2015-Mar-24 10:33N 54°59' W 005°03'2 1.7
2015-Mar-24 09:33N 54°58' W 005°01'9 8.9
2015-Mar-24 08:33N 54°59' W 005°16'1818.4
2015-Mar-24 07:33N 54°52' W 005°46'2 1.8
2015-Mar-24 06:33N 54°51' W 005°48'6 5.6
2015-Mar-24 05:33N 54°54' W 005°40'1817.6
2015-Mar-24 04:30N 55°02' W 005°11'7 6.8
2015-Mar-24 03:31N 54°58' W 005°01'0 0.0
2015-Mar-24 02:33N 54°58' W 005°01'5 4.7
2015-Mar-24 01:31N 55°02' W 005°06'1818.3
2015-Mar-24 00:33N 54°54' W 005°34'9 8.6
2015-Mar-23 23:33N 54°51' W 005°48'0 0.0
2015-Mar-23 22:33N 54°51' W 005°48'3 3.4
2015-Mar-23 21:33N 54°53' W 005°43'1818.0
2015-Mar-23 20:33N 55°00' W 005°15'8 8.2
2015-Mar-23 19:31N 54°58' W 005°01'0 0.2
2015-Mar-23 18:33N 54°58' W 005°01'1212.2
2015-Mar-23 17:33N 54°58' W 005°23'1616.0
2015-Mar-23 16:33N 54°51' W 005°48'0 0.1
2015-Mar-23 15:34N 54°51' W 005°48'1312.5
2015-Mar-23 14:32N 54°57' W 005°28'1515.2
2015-Mar-23 13:33N 54°59' W 005°03'2 2.0
2015-Mar-23 12:34N 54°58' W 005°01'1010.4
2015-Mar-23 11:33N 54°58' W 005°19'1817.4
2015-Mar-23 10:31N 54°51' W 005°48'0 0.1
2015-Mar-23 09:32N 54°51' W 005°48'1212.0
2015-Mar-23 08:33N 54°57' W 005°30'1515.0
2015-Mar-23 07:31N 54°59' W 005°03'2 2.0
2015-Mar-23 06:33N 54°58' W 005°01'5 5.2
2015-Mar-23 05:31N 55°01' W 005°08'1818.1
2015-Mar-23 04:33N 54°54' W 005°36'8 7.9
2015-Mar-23 03:33N 54°51' W 005°48'0 0.0
2015-Mar-23 02:33N 54°51' W 005°48'0 0.0
2015-Mar-23 01:34N 54°51' W 005°48'3 3.4
2015-Mar-23 00:32N 54°53' W 005°43'1817.7
2015-Mar-22 23:33N 55°01' W 005°15'9 8.8
2015-Mar-22 22:33N 54°58' W 005°01'6 5.6
2015-Mar-22 21:31N 55°02' W 005°09'1717.4
2015-Mar-22 20:33N 54°54' W 005°35'8 8.1
2015-Mar-22 19:33N 54°51' W 005°48'0 0.0
2015-Mar-22 18:33N 54°51' W 005°48'1313.1
2015-Mar-22 17:33N 54°57' W 005°28'1515.0
2015-Mar-22 16:33N 54°58' W 005°02'1 0.9
2015-Mar-22 15:33N 54°58' W 005°01'6 5.5
2015-Mar-22 14:33N 55°02' W 005°08'1917.9
2015-Mar-22 13:30N 54°54' W 005°38'  

Dump ship's entire track history